createdAt,value
2024-02-29T00:00:27.466Z,98807.28
2024-02-29T00:03:34.389Z,98806.97
2024-02-29T00:06:40.845Z,98799.41
2024-02-29T00:09:50.281Z,98817.81
2024-02-29T00:12:56.572Z,98817.13
2024-02-29T00:16:03.918Z,98815.00
2024-02-29T00:19:09.961Z,98814.34
2024-02-29T00:22:16.583Z,98813.19
2024-02-29T00:25:25.742Z,98814.50
2024-02-29T00:28:32.259Z,98813.38
2024-02-29T00:31:38.279Z,98814.03
2024-02-29T00:34:45.144Z,98805.97
2024-02-29T00:37:51.102Z,98814.22
2024-02-29T00:41:00.422Z,98810.41
2024-02-29T00:44:06.687Z,98821.06
2024-02-29T00:47:15.263Z,98807.75
2024-02-29T00:50:21.403Z,98813.31
2024-02-29T00:53:28.189Z,98817.41
2024-02-29T00:56:36.929Z,98808.19
2024-02-29T00:59:44.173Z,98814.28
2024-02-29T01:02:50.157Z,98804.25
2024-02-29T01:05:57.115Z,98804.09
2024-02-29T01:09:03.129Z,98805.91
2024-02-29T01:12:12.797Z,98803.28
2024-02-29T01:15:20.918Z,98803.25
2024-02-29T01:18:27.744Z,98803.38
2024-02-29T01:21:33.845Z,98803.69
2024-02-29T01:24:40.916Z,98798.78
2024-02-29T01:27:49.602Z,98792.75
2024-02-29T01:30:56.397Z,98798.34
2024-02-29T01:34:02.575Z,98796.38
2024-02-29T01:37:09.430Z,98798.84
2024-02-29T01:40:19.592Z,98807.53
2024-02-29T01:43:30.746Z,98792.94
2024-02-29T01:46:36.771Z,98788.88
2024-02-29T01:49:44.291Z,98795.59
2024-02-29T01:52:50.984Z,98790.34
2024-02-29T01:55:58.032Z,98787.88
2024-02-29T01:59:08.989Z,98794.13
2024-02-29T02:02:16.037Z,98789.53
2024-02-29T02:05:22.126Z,98789.53
2024-02-29T02:08:31.666Z,98789.19
2024-02-29T02:11:37.712Z,98792.16
2024-02-29T02:14:47.779Z,98791.50
2024-02-29T02:17:53.907Z,98783.75
2024-02-29T02:21:03.471Z,98780.84
2024-02-29T02:24:09.954Z,98780.66
2024-02-29T02:27:16.720Z,98779.69
2024-02-29T02:30:22.769Z,98777.88
2024-02-29T02:33:29.678Z,98779.19
2024-02-29T02:36:38.367Z,98777.41
2024-02-29T02:39:45.427Z,98775.44
2024-02-29T02:42:51.492Z,98774.44
2024-02-29T02:45:58.981Z,98777.56
2024-02-29T02:49:05.624Z,98784.66
2024-02-29T02:52:15.138Z,98775.75
2024-02-29T02:55:21.581Z,98775.75
2024-02-29T02:58:28.421Z,98774.13
2024-02-29T03:01:35.023Z,98780.88
2024-02-29T03:04:41.786Z,98769.53
2024-02-29T03:07:50.896Z,98768.69
2024-02-29T03:10:58.037Z,98765.25
2024-02-29T03:14:04.110Z,98767.72
2024-02-29T03:17:10.938Z,98766.91
2024-02-29T03:20:17.020Z,98756.38
2024-02-29T03:23:26.533Z,98756.41
2024-02-29T03:26:32.602Z,98758.38
2024-02-29T03:29:39.457Z,98757.53
2024-02-29T03:32:45.547Z,98757.53
2024-02-29T03:35:52.637Z,98744.72
2024-02-29T03:39:01.475Z,98760.50
2024-02-29T03:42:08.363Z,98757.88
2024-02-29T03:45:14.454Z,98752.59
2024-02-29T03:48:21.451Z,98750.81
2024-02-29T03:51:27.568Z,98755.56
2024-02-29T03:54:37.015Z,98752.94
2024-02-29T03:57:43.048Z,98751.97
2024-02-29T04:00:50.332Z,98747.53
2024-02-29T04:03:56.495Z,98747.53
2024-02-29T04:07:03.284Z,98748.34
2024-02-29T04:10:13.352Z,98743.94
2024-02-29T04:13:21.926Z,98744.06
2024-02-29T04:16:28.024Z,98738.97
2024-02-29T04:19:34.846Z,98736.69
2024-02-29T04:22:40.978Z,98737.66
2024-02-29T04:25:50.644Z,98723.22
2024-02-29T04:28:56.861Z,98727.16
2024-02-29T04:32:08.462Z,98723.88
2024-02-29T04:35:14.795Z,98728.81
2024-02-29T04:38:21.803Z,98728.81
2024-02-29T04:41:30.462Z,98724.03
2024-02-29T04:44:37.268Z,98717.97
2024-02-29T04:47:44.246Z,98720.59
2024-02-29T04:50:51.231Z,98719.63
2024-02-29T04:53:57.285Z,98722.06
2024-02-29T04:57:06.656Z,98723.88
2024-02-29T05:00:14.642Z,98723.38
2024-02-29T05:03:22.501Z,98718.47
2024-02-29T05:06:29.366Z,98714.03
2024-02-29T05:09:36.533Z,98718.31
2024-02-29T05:12:50.156Z,98711.75
2024-02-29T05:15:56.990Z,98712.72
2024-02-29T05:19:03.243Z,98715.03
2024-02-29T05:22:10.167Z,98716.66
2024-02-29T05:25:16.344Z,98720.09
2024-02-29T05:28:25.730Z,98727.81
2024-02-29T05:31:32.432Z,98722.56
2024-02-29T05:34:39.204Z,98719.63
2024-02-29T05:37:45.710Z,98729.78
2024-02-29T05:40:52.582Z,98724.22
2024-02-29T05:44:01.590Z,98726.47
2024-02-29T05:47:09.359Z,98726.78
2024-02-29T05:50:15.836Z,98725.50
2024-02-29T05:53:22.623Z,98725.19
2024-02-29T05:56:28.819Z,98734.53
2024-02-29T05:59:38.221Z,98733.56
2024-02-29T06:02:44.847Z,98724.38
2024-02-29T06:05:51.594Z,98723.22
2024-02-29T06:08:57.580Z,98732.41
2024-02-29T06:12:04.658Z,98729.78
2024-02-29T06:15:14.245Z,98721.09
2024-02-29T06:18:21.020Z,98723.72
2024-02-29T06:21:27.551Z,98721.75
2024-02-29T06:24:34.401Z,98709.91
2024-02-29T06:27:41.108Z,98717.31
2024-02-29T06:30:51.049Z,98710.72
2024-02-29T06:33:57.331Z,98710.06
2024-02-29T06:37:04.202Z,98724.69
2024-02-29T06:40:14.772Z,98734.03
2024-02-29T06:43:21.628Z,98727.66
2024-02-29T06:46:30.366Z,98731.09
2024-02-29T06:49:37.110Z,98735.53
2024-02-29T06:52:43.695Z,98740.63
2024-02-29T06:55:50.493Z,98728.75
2024-02-29T06:58:56.465Z,98740.28
2024-02-29T07:02:06.344Z,98739.09
2024-02-29T07:05:12.860Z,98731.56
2024-02-29T07:08:19.692Z,98728.75
2024-02-29T07:11:27.507Z,98728.94
2024-02-29T07:14:34.819Z,98723.19
2024-02-29T07:17:43.551Z,98725.81
2024-02-29T07:20:50.583Z,98727.31
2024-02-29T07:23:56.598Z,98721.22
2024-02-29T07:27:04.052Z,98715.31
2024-02-29T07:30:12.736Z,98712.84
2024-02-29T07:33:22.670Z,98707.44
2024-02-29T07:36:30.080Z,98717.78
2024-02-29T07:39:36.917Z,98709.72
2024-02-29T07:42:43.327Z,98714.81
2024-02-29T07:45:50.307Z,98707.41
2024-02-29T07:48:58.977Z,98700.34
2024-02-29T07:52:06.117Z,98701.16
2024-02-29T07:55:15.994Z,98699.53
2024-02-29T07:58:22.873Z,98708.56
2024-02-29T08:01:28.947Z,98711.84
2024-02-29T08:04:38.471Z,98700.50
2024-02-29T08:07:48.084Z,98702.47
2024-02-29T08:10:54.885Z,98698.47
2024-02-29T08:14:00.944Z,98699.63
2024-02-29T08:17:08.261Z,98706.22
2024-02-29T08:20:21.652Z,98696.53
2024-02-29T08:23:28.747Z,98702.31
2024-02-29T08:26:34.926Z,98694.09
2024-02-29T08:29:41.776Z,98702.97
2024-02-29T08:32:50.071Z,98698.91
2024-02-29T08:35:59.511Z,98691.53
2024-02-29T08:39:06.020Z,98693.50
2024-02-29T08:42:12.821Z,98693.81
2024-02-29T08:45:20.530Z,98689.22
2024-02-29T08:48:28.609Z,98692.34
2024-02-29T08:51:37.443Z,98688.72
2024-02-29T08:54:43.840Z,98685.88
2024-02-29T08:57:49.410Z,98682.56
2024-02-29T09:00:55.999Z,98686.66
2024-02-29T09:04:03.269Z,98683.00
2024-02-29T09:07:12.154Z,98684.53
2024-02-29T09:10:18.249Z,98682.75
2024-02-29T09:13:30.550Z,98682.00
2024-02-29T09:16:40.755Z,98681.34
2024-02-29T09:19:47.685Z,98677.94
2024-02-29T09:22:56.111Z,98672.56
2024-02-29T09:26:04.186Z,98657.88
2024-02-29T09:29:09.674Z,98652.72
2024-02-29T09:32:15.910Z,98657.13
2024-02-29T09:35:21.399Z,98643.91
2024-02-29T09:38:30.476Z,98645.28
2024-02-29T09:41:58.819Z,98645.91
2024-02-29T09:45:02.401Z,98643.63
2024-02-29T09:48:11.124Z,98638.31
2024-02-29T09:51:24.389Z,98633.25
2024-02-29T09:54:38.139Z,98628.72
2024-02-29T09:57:45.074Z,98634.75
2024-02-29T10:00:51.851Z,98633.00
2024-02-29T10:03:59.972Z,98626.53
2024-02-29T10:07:05.564Z,98614.63
2024-02-29T10:10:18.075Z,98618.28
2024-02-29T10:13:23.721Z,98606.44
2024-02-29T10:16:30.126Z,98610.97
2024-02-29T10:19:38.937Z,98600.78
2024-02-29T10:22:49.126Z,98598.38
2024-02-29T10:25:59.133Z,98590.53
2024-02-29T10:29:07.373Z,98579.69
2024-02-29T10:32:13.543Z,98578.38
2024-02-29T10:35:24.635Z,98582.25
2024-02-29T10:38:30.151Z,98568.34
2024-02-29T10:41:42.600Z,98566.69
2024-02-29T10:44:51.882Z,98557.06
2024-02-29T10:48:12.206Z,98553.06
2024-02-29T10:51:31.020Z,98550.91
2024-02-29T10:54:56.913Z,98546.56
2024-02-29T10:58:16.492Z,98544.94
2024-02-29T11:01:23.169Z,98548.28
2024-02-29T11:04:29.303Z,98531.41
2024-02-29T11:07:36.788Z,98527.97
2024-02-29T11:10:42.465Z,98532.31
2024-02-29T11:13:51.298Z,98521.53
2024-02-29T11:16:59.724Z,98519.88
2024-02-29T11:20:10.619Z,98515.50
2024-02-29T11:23:17.391Z,98501.56
2024-02-29T11:26:33.211Z,98505.09
2024-02-29T11:29:41.460Z,98499.09
2024-02-29T11:32:47.703Z,98501.88
2024-02-29T11:35:55.956Z,98497.19
2024-02-29T11:39:03.158Z,98503.50
2024-02-29T11:42:09.652Z,98490.53
2024-02-29T11:45:25.607Z,98482.13
2024-02-29T11:48:31.286Z,98474.56
2024-02-29T11:51:37.763Z,98483.00
2024-02-29T11:54:43.732Z,98478.78
2024-02-29T11:57:50.558Z,98472.78
2024-02-29T12:00:58.698Z,98467.16
2024-02-29T12:04:06.220Z,98469.53
2024-02-29T12:07:12.197Z,98469.75
2024-02-29T12:10:19.682Z,98460.59
2024-02-29T12:13:25.879Z,98457.25
2024-02-29T12:16:34.886Z,98457.66
2024-02-29T12:19:43.241Z,98451.59
2024-02-29T12:22:50.771Z,98447.53
2024-02-29T12:25:56.525Z,98452.78
2024-02-29T12:29:03.642Z,98443.41
2024-02-29T12:32:13.755Z,98438.16
2024-02-29T12:35:21.537Z,98429.91
2024-02-29T12:38:28.743Z,98439.19
2024-02-29T12:41:35.429Z,98433.09
2024-02-29T12:44:41.526Z,98434.50
2024-02-29T12:47:50.392Z,98432.66
2024-02-29T12:50:56.066Z,98421.28
2024-02-29T12:54:02.307Z,98423.00
2024-02-29T12:57:11.440Z,98406.50
2024-02-29T13:00:25.412Z,98404.41
2024-02-29T13:03:33.711Z,98390.81
2024-02-29T13:06:40.456Z,98393.13
2024-02-29T13:09:47.092Z,98389.00
2024-02-29T13:13:00.195Z,98386.19
2024-02-29T13:16:11.791Z,98384.88
2024-02-29T13:19:20.754Z,98379.13
2024-02-29T13:22:26.484Z,98378.47
2024-02-29T13:25:33.021Z,98369.72
2024-02-29T13:28:39.880Z,98371.88
2024-02-29T13:31:46.260Z,98381.31
2024-02-29T13:34:55.059Z,98374.28
2024-02-29T13:38:04.248Z,98371.59
2024-02-29T13:41:11.039Z,98371.81
2024-02-29T13:44:17.357Z,98369.22
2024-02-29T13:47:22.890Z,98363.13
2024-02-29T13:50:31.810Z,98359.69
2024-02-29T13:53:37.844Z,98361.31
2024-02-29T13:56:44.274Z,98363.44
2024-02-29T13:59:50.800Z,98359.34
2024-02-29T14:02:57.039Z,98366.53
2024-02-29T14:06:05.794Z,98354.34
2024-02-29T14:09:12.804Z,98354.59
2024-02-29T14:12:18.471Z,98348.88
2024-02-29T14:15:24.799Z,98355.44
2024-02-29T14:18:31.501Z,98349.88
2024-02-29T14:21:40.415Z,98350.00
2024-02-29T14:24:49.192Z,98348.19
2024-02-29T14:27:56.882Z,98343.13
2024-02-29T14:31:02.464Z,98346.88
2024-02-29T14:34:10.333Z,98341.16
2024-02-29T14:37:19.192Z,98343.22
2024-02-29T14:40:26.070Z,98342.84
2024-02-29T14:43:31.690Z,98330.00
2024-02-29T14:46:38.802Z,98337.13
2024-02-29T14:49:44.525Z,98337.75
2024-02-29T14:52:53.420Z,98331.88
2024-02-29T14:55:59.216Z,98333.16
2024-02-29T14:59:05.647Z,98328.47
2024-02-29T15:02:12.804Z,98327.84
2024-02-29T15:05:19.263Z,98320.16
2024-02-29T15:08:27.680Z,98317.44
2024-02-29T15:11:34.154Z,98317.69
2024-02-29T15:14:40.374Z,98316.44
2024-02-29T15:17:47.126Z,98319.19
2024-02-29T15:20:53.331Z,98309.13
2024-02-29T15:24:06.056Z,98303.91
2024-02-29T15:27:11.982Z,98306.09
2024-02-29T15:30:18.682Z,98311.41
2024-02-29T15:33:24.318Z,98308.13
2024-02-29T15:36:30.587Z,98310.41
2024-02-29T15:39:38.840Z,98300.59
2024-02-29T15:42:45.107Z,98303.00
2024-02-29T15:45:50.794Z,98302.84
2024-02-29T15:48:57.637Z,98300.28
2024-02-29T15:52:04.323Z,98299.22
2024-02-29T15:55:13.465Z,98309.34
2024-02-29T15:58:19.356Z,98298.38
2024-02-29T16:01:26.065Z,98298.88
2024-02-29T16:04:32.142Z,98293.78
2024-02-29T16:07:38.537Z,98292.75
2024-02-29T16:10:48.336Z,98284.59
2024-02-29T16:13:56.706Z,98290.38
2024-02-29T16:17:03.385Z,98284.16
2024-02-29T16:20:11.640Z,98285.28
2024-02-29T16:23:18.775Z,98286.34
2024-02-29T16:26:27.934Z,98284.84
2024-02-29T16:29:33.601Z,98290.47
2024-02-29T16:32:41.481Z,98286.47
2024-02-29T16:35:48.327Z,98283.91
2024-02-29T16:38:54.661Z,98283.59
2024-02-29T16:42:02.829Z,98292.03
2024-02-29T16:45:10.825Z,98286.34
2024-02-29T16:48:16.521Z,98285.38
2024-02-29T16:51:22.923Z,98281.69
2024-02-29T16:54:28.552Z,98282.16
2024-02-29T16:57:37.837Z,98281.53
2024-02-29T17:00:43.372Z,98283.19
2024-02-29T17:03:49.724Z,98271.38
2024-02-29T17:06:55.563Z,98272.81
2024-02-29T17:10:03.000Z,98276.50
2024-02-29T17:13:11.426Z,98282.19
2024-02-29T17:16:18.158Z,98285.88
2024-02-29T17:19:23.878Z,98280.19
2024-02-29T17:22:30.916Z,98282.38
2024-02-29T17:25:36.617Z,98290.72
2024-02-29T17:28:45.479Z,98272.56
2024-02-29T17:31:51.010Z,98283.78
2024-02-29T17:34:57.444Z,98285.56
2024-02-29T17:38:03.956Z,98290.03
2024-02-29T17:41:10.253Z,98279.03
2024-02-29T17:44:20.837Z,98275.72
2024-02-29T17:47:27.271Z,98282.63
2024-02-29T17:50:32.954Z,98260.84
2024-02-29T17:53:39.203Z,98274.66
2024-02-29T17:56:47.761Z,98274.41
2024-02-29T17:59:59.114Z,98265.25
2024-02-29T18:03:04.650Z,98267.84
2024-02-29T18:06:12.309Z,98269.63
2024-02-29T18:09:18.169Z,98268.97
2024-02-29T18:12:24.498Z,98260.00
2024-02-29T18:15:32.613Z,98258.50
2024-02-29T18:18:39.328Z,98258.06
2024-02-29T18:21:47.087Z,98240.00
2024-02-29T18:24:54.572Z,98243.41
2024-02-29T18:28:00.190Z,98247.81
2024-02-29T18:31:09.272Z,98246.16
2024-02-29T18:34:14.969Z,98236.16
2024-02-29T18:37:21.319Z,98219.19
2024-02-29T18:40:27.179Z,98229.56
2024-02-29T18:43:33.581Z,98234.59
2024-02-29T18:46:43.801Z,98231.69
2024-02-29T18:49:50.319Z,98230.03
2024-02-29T18:52:56.037Z,98222.03
2024-02-29T18:56:02.298Z,98229.66
2024-02-29T18:59:07.949Z,98217.44
2024-02-29T19:02:17.009Z,98215.94
2024-02-29T19:05:22.844Z,98221.16
2024-02-29T19:08:29.374Z,98220.91
2024-02-29T19:11:34.932Z,98218.84
2024-02-29T19:14:41.345Z,98216.78
2024-02-29T19:17:49.550Z,98213.06
2024-02-29T19:20:55.851Z,98221.72
2024-02-29T19:24:01.364Z,98217.81
2024-02-29T19:27:10.081Z,98210.28
2024-02-29T19:30:18.916Z,98216.28
2024-02-29T19:33:28.396Z,98214.84
2024-02-29T19:36:34.278Z,98209.75
2024-02-29T19:39:44.353Z,98204.88
2024-02-29T19:42:50.126Z,98195.16
2024-02-29T19:45:56.484Z,98199.34
2024-02-29T19:49:04.641Z,98199.28
2024-02-29T19:52:11.084Z,98189.66
2024-02-29T19:55:16.597Z,98191.50
2024-02-29T19:58:22.917Z,98186.56
2024-02-29T20:01:28.611Z,98191.78
2024-02-29T20:04:37.786Z,98191.06
2024-02-29T20:07:44.054Z,98184.66
2024-02-29T20:10:50.575Z,98193.91
2024-02-29T20:13:56.227Z,98176.09
2024-02-29T20:17:04.866Z,98186.00
2024-02-29T20:20:15.370Z,98182.72
2024-02-29T20:23:22.457Z,98160.88
2024-02-29T20:26:28.723Z,98190.97
2024-02-29T20:29:35.010Z,98182.44
2024-02-29T20:32:41.740Z,98175.72
2024-02-29T20:35:50.572Z,98173.63
2024-02-29T20:38:56.081Z,98153.66
2024-02-29T20:42:02.431Z,98162.00
2024-02-29T20:45:09.235Z,98164.47
2024-02-29T20:48:18.131Z,98158.41
2024-02-29T20:51:26.429Z,98154.50
2024-02-29T20:54:32.890Z,98158.13
2024-02-29T20:57:39.965Z,98147.78
2024-02-29T21:00:46.531Z,98146.34
2024-02-29T21:03:52.780Z,98139.63
2024-02-29T21:07:01.913Z,98142.59
2024-02-29T21:10:08.753Z,98138.19
2024-02-29T21:13:15.191Z,98130.31
2024-02-29T21:16:20.863Z,98126.81
2024-02-29T21:19:27.467Z,98126.19
2024-02-29T21:22:36.442Z,98117.66
2024-02-29T21:25:42.714Z,98119.50
2024-02-29T21:28:50.705Z,98119.03
2024-02-29T21:31:57.025Z,98105.63
2024-02-29T21:35:02.599Z,98109.41
2024-02-29T21:38:11.557Z,98111.78
2024-02-29T21:41:17.466Z,98109.50
2024-02-29T21:44:26.086Z,98109.88
2024-02-29T21:47:31.677Z,98106.44
2024-02-29T21:50:38.245Z,98100.16
2024-02-29T21:53:46.488Z,98099.38
2024-02-29T21:56:54.348Z,98102.81
2024-02-29T21:59:59.829Z,98089.56
2024-02-29T22:03:06.668Z,98083.41
2024-02-29T22:06:15.103Z,98089.66
2024-02-29T22:09:25.141Z,98087.75
2024-02-29T22:12:30.733Z,98080.84
2024-02-29T22:15:37.059Z,98074.16
2024-02-29T22:18:42.612Z,98079.75
2024-02-29T22:21:48.997Z,98076.13
2024-02-29T22:24:57.377Z,98075.31
2024-02-29T22:28:03.668Z,98069.25
2024-02-29T22:31:09.187Z,98067.63
2024-02-29T22:34:15.564Z,98059.75
2024-02-29T22:37:21.567Z,98053.03
2024-02-29T22:40:30.684Z,98058.97
2024-02-29T22:43:36.477Z,98058.97
2024-02-29T22:46:42.711Z,98052.28
2024-02-29T22:49:48.168Z,98049.03
2024-02-29T22:52:57.543Z,98040.34
2024-02-29T22:56:05.657Z,98036.53
2024-02-29T22:59:11.988Z,98028.75
2024-02-29T23:02:17.525Z,98038.72
2024-02-29T23:05:23.755Z,98027.22
2024-02-29T23:08:30.996Z,98030.03
2024-02-29T23:11:42.012Z,98018.44
2024-02-29T23:14:51.076Z,98014.44
2024-02-29T23:17:57.349Z,98015.53
2024-02-29T23:21:03.064Z,98016.19
2024-02-29T23:24:11.204Z,98008.47
2024-02-29T23:27:19.294Z,98015.34
2024-02-29T23:30:26.068Z,98003.03
2024-02-29T23:33:32.149Z,98002.66
2024-02-29T23:36:38.481Z,97999.22
2024-02-29T23:39:44.033Z,98007.13
2024-02-29T23:42:53.028Z,97994.16
2024-02-29T23:45:59.087Z,97974.75
2024-02-29T23:49:05.511Z,97994.72
2024-02-29T23:52:11.235Z,97991.44
2024-02-29T23:55:17.762Z,97993.91
2024-02-29T23:58:25.952Z,97999.78
